sensor_id;sensor_type;location;lat;lon;timestamp;temperature;humidity
31783;DHT22;18351;47.560;9.708;2023-12-22T00:01:09;8.80;99.90
31783;DHT22;18351;47.560;9.708;2023-12-22T00:03:35;8.80;99.90
31783;DHT22;18351;47.560;9.708;2023-12-22T00:06:00;8.80;99.90
31783;DHT22;18351;47.560;9.708;2023-12-22T00:08:26;8.80;99.90
31783;DHT22;18351;47.560;9.708;2023-12-22T00:10:51;8.70;99.90
31783;DHT22;18351;47.560;9.708;2023-12-22T00:13:17;8.80;99.90
31783;DHT22;18351;47.560;9.708;2023-12-22T00:15:43;8.90;99.90
31783;DHT22;18351;47.560;9.708;2023-12-22T00:18:08;8.90;99.90
31783;DHT22;18351;47.560;9.708;2023-12-22T00:20:34;8.90;99.90
31783;DHT22;18351;47.560;9.708;2023-12-22T00:23:00;8.90;99.90
31783;DHT22;18351;47.560;9.708;2023-12-22T00:25:26;9.00;99.90
31783;DHT22;18351;47.560;9.708;2023-12-22T00:27:51;9.00;99.90
31783;DHT22;18351;47.560;9.708;2023-12-22T00:30:17;9.00;99.90
31783;DHT22;18351;47.560;9.708;2023-12-22T00:32:43;9.10;99.90
31783;DHT22;18351;47.560;9.708;2023-12-22T00:35:08;9.10;99.90
31783;DHT22;18351;47.560;9.708;2023-12-22T00:37:34;9.20;99.90
31783;DHT22;18351;47.560;9.708;2023-12-22T00:40:00;9.20;99.90
31783;DHT22;18351;47.560;9.708;2023-12-22T00:42:26;9.20;99.90
31783;DHT22;18351;47.560;9.708;2023-12-22T00:44:52;9.20;99.90
31783;DHT22;18351;47.560;9.708;2023-12-22T00:47:17;9.30;99.90
31783;DHT22;18351;47.560;9.708;2023-12-22T00:49:43;9.20;99.90
31783;DHT22;18351;47.560;9.708;2023-12-22T00:52:08;9.20;99.90
31783;DHT22;18351;47.560;9.708;2023-12-22T00:54:34;9.30;99.90
31783;DHT22;18351;47.560;9.708;2023-12-22T00:56:59;9.20;99.90
31783;DHT22;18351;47.560;9.708;2023-12-22T00:59:25;9.10;99.90
31783;DHT22;18351;47.560;9.708;2023-12-22T01:01:51;9.00;99.90
31783;DHT22;18351;47.560;9.708;2023-12-22T01:04:16;8.90;99.90
31783;DHT22;18351;47.560;9.708;2023-12-22T01:06:42;8.80;99.90
31783;DHT22;18351;47.560;9.708;2023-12-22T01:09:08;8.70;99.90
31783;DHT22;18351;47.560;9.708;2023-12-22T01:11:33;8.60;99.90
31783;DHT22;18351;47.560;9.708;2023-12-22T01:13:59;8.50;99.90
31783;DHT22;18351;47.560;9.708;2023-12-22T01:16:24;8.40;99.90
31783;DHT22;18351;47.560;9.708;2023-12-22T01:18:50;8.30;99.90
31783;DHT22;18351;47.560;9.708;2023-12-22T01:21:19;8.20;99.90
31783;DHT22;18351;47.560;9.708;2023-12-22T01:23:44;8.20;99.90
31783;DHT22;18351;47.560;9.708;2023-12-22T01:26:10;8.20;99.90
31783;DHT22;18351;47.560;9.708;2023-12-22T01:28:36;8.20;99.90
31783;DHT22;18351;47.560;9.708;2023-12-22T01:31:02;8.10;99.90
31783;DHT22;18351;47.560;9.708;2023-12-22T01:33:28;8.20;99.90
31783;DHT22;18351;47.560;9.708;2023-12-22T01:35:55;8.10;99.90
31783;DHT22;18351;47.560;9.708;2023-12-22T01:38:20;8.10;99.90
31783;DHT22;18351;47.560;9.708;2023-12-22T01:40:46;8.10;99.90
31783;DHT22;18351;47.560;9.708;2023-12-22T01:43:11;8.10;99.90
31783;DHT22;18351;47.560;9.708;2023-12-22T01:45:38;8.20;99.90
31783;DHT22;18351;47.560;9.708;2023-12-22T01:48:04;8.20;99.90
31783;DHT22;18351;47.560;9.708;2023-12-22T01:50:30;8.20;99.90
31783;DHT22;18351;47.560;9.708;2023-12-22T01:52:56;8.30;99.90
31783;DHT22;18351;47.560;9.708;2023-12-22T01:55:22;8.20;99.90
31783;DHT22;18351;47.560;9.708;2023-12-22T01:57:49;8.20;99.90
31783;DHT22;18351;47.560;9.708;2023-12-22T02:00:14;8.20;99.90
31783;DHT22;18351;47.560;9.708;2023-12-22T02:02:41;8.20;99.90
31783;DHT22;18351;47.560;9.708;2023-12-22T02:05:08;8.20;99.90
31783;DHT22;18351;47.560;9.708;2023-12-22T02:07:38;8.20;99.90
31783;DHT22;18351;47.560;9.708;2023-12-22T02:10:07;8.30;99.90
31783;DHT22;18351;47.560;9.708;2023-12-22T02:12:32;8.20;99.90
31783;DHT22;18351;47.560;9.708;2023-12-22T02:14:58;8.20;99.90
31783;DHT22;18351;47.560;9.708;2023-12-22T02:17:32;8.20;99.90
31783;DHT22;18351;47.560;9.708;2023-12-22T02:20:01;8.20;99.90
31783;DHT22;18351;47.560;9.708;2023-12-22T02:22:29;8.20;99.90
31783;DHT22;18351;47.560;9.708;2023-12-22T02:24:55;8.20;99.90
31783;DHT22;18351;47.560;9.708;2023-12-22T02:32:50;8.20;99.90
31783;DHT22;18351;47.560;9.708;2023-12-22T02:35:21;8.20;99.90
31783;DHT22;18351;47.560;9.708;2023-12-22T02:37:49;8.20;99.90
31783;DHT22;18351;47.560;9.708;2023-12-22T02:40:16;8.20;99.90
31783;DHT22;18351;47.560;9.708;2023-12-22T02:42:44;8.20;99.90
31783;DHT22;18351;47.560;9.708;2023-12-22T02:45:17;8.20;99.90
31783;DHT22;18351;47.560;9.708;2023-12-22T02:47:44;8.20;99.90
31783;DHT22;18351;47.560;9.708;2023-12-22T02:50:10;8.20;99.90
31783;DHT22;18351;47.560;9.708;2023-12-22T02:52:36;8.10;99.90
31783;DHT22;18351;47.560;9.708;2023-12-22T02:55:02;8.10;99.90
31783;DHT22;18351;47.560;9.708;2023-12-22T02:57:28;8.10;99.90
31783;DHT22;18351;47.560;9.708;2023-12-22T02:59:53;8.00;99.90
31783;DHT22;18351;47.560;9.708;2023-12-22T03:02:19;8.00;99.90
31783;DHT22;18351;47.560;9.708;2023-12-22T03:04:45;8.00;99.90
31783;DHT22;18351;47.560;9.708;2023-12-22T03:07:12;8.00;99.90
31783;DHT22;18351;47.560;9.708;2023-12-22T03:09:37;8.00;99.90
31783;DHT22;18351;47.560;9.708;2023-12-22T03:12:03;8.00;99.90
31783;DHT22;18351;47.560;9.708;2023-12-22T03:14:30;8.00;99.90
31783;DHT22;18351;47.560;9.708;2023-12-22T03:16:56;8.00;99.90
31783;DHT22;18351;47.560;9.708;2023-12-22T03:19:21;8.10;99.90
31783;DHT22;18351;47.560;9.708;2023-12-22T03:21:48;8.10;99.90
31783;DHT22;18351;47.560;9.708;2023-12-22T03:24:13;8.10;99.90
31783;DHT22;18351;47.560;9.708;2023-12-22T03:26:39;8.20;99.90
31783;DHT22;18351;47.560;9.708;2023-12-22T03:29:05;8.20;99.90
31783;DHT22;18351;47.560;9.708;2023-12-22T03:31:30;8.20;99.90
31783;DHT22;18351;47.560;9.708;2023-12-22T03:33:56;8.20;99.90
31783;DHT22;18351;47.560;9.708;2023-12-22T03:36:21;8.20;99.90
31783;DHT22;18351;47.560;9.708;2023-12-22T03:38:47;8.20;99.90
31783;DHT22;18351;47.560;9.708;2023-12-22T03:41:13;8.20;99.90
31783;DHT22;18351;47.560;9.708;2023-12-22T03:43:38;8.20;99.90
31783;DHT22;18351;47.560;9.708;2023-12-22T03:46:04;8.20;99.90
31783;DHT22;18351;47.560;9.708;2023-12-22T03:48:29;8.10;99.90
31783;DHT22;18351;47.560;9.708;2023-12-22T03:50:55;8.10;99.90
31783;DHT22;18351;47.560;9.708;2023-12-22T03:53:20;8.10;99.90
31783;DHT22;18351;47.560;9.708;2023-12-22T03:55:46;8.10;99.90
31783;DHT22;18351;47.560;9.708;2023-12-22T03:58:11;8.10;99.90
31783;DHT22;18351;47.560;9.708;2023-12-22T04:00:37;8.10;99.90
31783;DHT22;18351;47.560;9.708;2023-12-22T04:03:03;8.10;99.90
31783;DHT22;18351;47.560;9.708;2023-12-22T04:05:29;8.00;99.90
31783;DHT22;18351;47.560;9.708;2023-12-22T04:07:55;8.00;99.90
31783;DHT22;18351;47.560;9.708;2023-12-22T04:10:20;7.90;99.90
31783;DHT22;18351;47.560;9.708;2023-12-22T04:12:46;7.80;99.90
31783;DHT22;18351;47.560;9.708;2023-12-22T04:15:11;7.70;99.90
31783;DHT22;18351;47.560;9.708;2023-12-22T04:17:38;7.70;99.90
31783;DHT22;18351;47.560;9.708;2023-12-22T04:20:05;7.60;99.90
31783;DHT22;18351;47.560;9.708;2023-12-22T04:22:31;7.60;99.90
31783;DHT22;18351;47.560;9.708;2023-12-22T04:24:56;7.60;99.90
31783;DHT22;18351;47.560;9.708;2023-12-22T04:27:22;7.60;99.90
31783;DHT22;18351;47.560;9.708;2023-12-22T04:29:47;7.60;99.90
31783;DHT22;18351;47.560;9.708;2023-12-22T04:32:13;7.60;99.90
31783;DHT22;18351;47.560;9.708;2023-12-22T04:34:38;7.60;99.90
31783;DHT22;18351;47.560;9.708;2023-12-22T04:37:04;7.60;99.90
31783;DHT22;18351;47.560;9.708;2023-12-22T04:39:29;7.60;99.90
31783;DHT22;18351;47.560;9.708;2023-12-22T04:41:55;7.60;99.90
31783;DHT22;18351;47.560;9.708;2023-12-22T04:44:20;7.60;99.90
31783;DHT22;18351;47.560;9.708;2023-12-22T04:46:46;7.60;99.90
31783;DHT22;18351;47.560;9.708;2023-12-22T04:49:11;7.70;99.90
31783;DHT22;18351;47.560;9.708;2023-12-22T04:51:37;7.70;99.90
31783;DHT22;18351;47.560;9.708;2023-12-22T04:54:03;7.70;99.90
31783;DHT22;18351;47.560;9.708;2023-12-22T04:56:28;7.70;99.90
31783;DHT22;18351;47.560;9.708;2023-12-22T04:58:54;7.70;99.90
31783;DHT22;18351;47.560;9.708;2023-12-22T05:01:19;7.70;99.90
31783;DHT22;18351;47.560;9.708;2023-12-22T05:03:46;7.70;99.90
31783;DHT22;18351;47.560;9.708;2023-12-22T05:06:11;7.70;99.90
31783;DHT22;18351;47.560;9.708;2023-12-22T05:08:37;7.80;99.90
31783;DHT22;18351;47.560;9.708;2023-12-22T05:11:03;7.80;99.90
31783;DHT22;18351;47.560;9.708;2023-12-22T05:13:28;7.90;99.90
31783;DHT22;18351;47.560;9.708;2023-12-22T05:15:54;7.90;99.90
31783;DHT22;18351;47.560;9.708;2023-12-22T05:18:20;7.90;99.90
31783;DHT22;18351;47.560;9.708;2023-12-22T05:20:46;7.90;99.90
31783;DHT22;18351;47.560;9.708;2023-12-22T05:23:11;7.90;99.90
31783;DHT22;18351;47.560;9.708;2023-12-22T05:25:37;7.90;99.90
31783;DHT22;18351;47.560;9.708;2023-12-22T05:28:02;7.90;99.90
31783;DHT22;18351;47.560;9.708;2023-12-22T05:30:28;7.90;99.90
31783;DHT22;18351;47.560;9.708;2023-12-22T05:32:53;7.90;99.90
31783;DHT22;18351;47.560;9.708;2023-12-22T05:35:20;7.90;99.90
31783;DHT22;18351;47.560;9.708;2023-12-22T05:37:46;7.90;99.90
31783;DHT22;18351;47.560;9.708;2023-12-22T05:40:11;7.90;99.90
31783;DHT22;18351;47.560;9.708;2023-12-22T05:42:37;7.90;99.90
31783;DHT22;18351;47.560;9.708;2023-12-22T05:45:03;8.00;99.90
31783;DHT22;18351;47.560;9.708;2023-12-22T05:47:29;8.00;99.90
31783;DHT22;18351;47.560;9.708;2023-12-22T05:49:54;8.00;99.90
31783;DHT22;18351;47.560;9.708;2023-12-22T05:52:20;8.10;99.90
31783;DHT22;18351;47.560;9.708;2023-12-22T05:54:45;8.10;99.90
31783;DHT22;18351;47.560;9.708;2023-12-22T05:57:11;8.10;99.90
31783;DHT22;18351;47.560;9.708;2023-12-22T05:59:38;8.10;99.90
31783;DHT22;18351;47.560;9.708;2023-12-22T06:02:03;8.10;99.90
31783;DHT22;18351;47.560;9.708;2023-12-22T06:04:29;8.10;99.90
31783;DHT22;18351;47.560;9.708;2023-12-22T06:06:54;8.10;99.90
31783;DHT22;18351;47.560;9.708;2023-12-22T06:09:20;8.10;99.90
31783;DHT22;18351;47.560;9.708;2023-12-22T06:11:47;8.10;99.90
31783;DHT22;18351;47.560;9.708;2023-12-22T06:14:13;8.10;99.90
31783;DHT22;18351;47.560;9.708;2023-12-22T06:16:39;8.10;99.90
31783;DHT22;18351;47.560;9.708;2023-12-22T06:19:05;8.10;99.90
31783;DHT22;18351;47.560;9.708;2023-12-22T06:21:30;8.10;99.90
31783;DHT22;18351;47.560;9.708;2023-12-22T06:23:56;8.00;99.90
31783;DHT22;18351;47.560;9.708;2023-12-22T06:26:21;8.00;99.90
31783;DHT22;18351;47.560;9.708;2023-12-22T06:28:47;8.00;99.90
31783;DHT22;18351;47.560;9.708;2023-12-22T06:31:19;8.00;99.90
31783;DHT22;18351;47.560;9.708;2023-12-22T06:33:50;8.00;99.90
31783;DHT22;18351;47.560;9.708;2023-12-22T06:36:23;8.00;99.90
31783;DHT22;18351;47.560;9.708;2023-12-22T06:38:50;8.00;99.90
31783;DHT22;18351;47.560;9.708;2023-12-22T06:41:22;8.00;99.90
31783;DHT22;18351;47.560;9.708;2023-12-22T06:43:49;8.10;99.90
31783;DHT22;18351;47.560;9.708;2023-12-22T06:46:18;8.10;99.90
31783;DHT22;18351;47.560;9.708;2023-12-22T06:48:45;8.10;99.90
31783;DHT22;18351;47.560;9.708;2023-12-22T06:53:47;8.10;99.90
31783;DHT22;18351;47.560;9.708;2023-12-22T06:56:33;8.20;99.90
31783;DHT22;18351;47.560;9.708;2023-12-22T06:58:59;8.20;99.90
31783;DHT22;18351;47.560;9.708;2023-12-22T07:01:31;8.20;99.90
31783;DHT22;18351;47.560;9.708;2023-12-22T07:03:57;8.20;99.90
31783;DHT22;18351;47.560;9.708;2023-12-22T07:06:24;8.20;99.90
31783;DHT22;18351;47.560;9.708;2023-12-22T07:11:37;8.20;99.90
31783;DHT22;18351;47.560;9.708;2023-12-22T07:14:03;8.10;99.90
31783;DHT22;18351;47.560;9.708;2023-12-22T07:16:28;8.10;99.90
31783;DHT22;18351;47.560;9.708;2023-12-22T07:18:54;8.10;99.90
31783;DHT22;18351;47.560;9.708;2023-12-22T07:21:19;8.20;99.90
31783;DHT22;18351;47.560;9.708;2023-12-22T07:23:45;8.10;99.90
31783;DHT22;18351;47.560;9.708;2023-12-22T07:26:11;8.20;99.90
31783;DHT22;18351;47.560;9.708;2023-12-22T07:28:36;8.10;99.90
31783;DHT22;18351;47.560;9.708;2023-12-22T07:31:02;8.20;99.90
31783;DHT22;18351;47.560;9.708;2023-12-22T07:33:27;8.20;99.90
31783;DHT22;18351;47.560;9.708;2023-12-22T07:35:53;8.20;99.90
31783;DHT22;18351;47.560;9.708;2023-12-22T07:38:19;8.20;99.90
31783;DHT22;18351;47.560;9.708;2023-12-22T07:40:45;8.20;99.90
31783;DHT22;18351;47.560;9.708;2023-12-22T07:43:10;8.20;99.90
31783;DHT22;18351;47.560;9.708;2023-12-22T07:45:36;8.20;99.90
31783;DHT22;18351;47.560;9.708;2023-12-22T07:48:03;8.20;99.90
31783;DHT22;18351;47.560;9.708;2023-12-22T07:50:28;8.20;99.90
31783;DHT22;18351;47.560;9.708;2023-12-22T07:52:54;8.20;99.90
31783;DHT22;18351;47.560;9.708;2023-12-22T07:55:20;8.30;99.90
31783;DHT22;18351;47.560;9.708;2023-12-22T07:57:45;8.30;99.90
31783;DHT22;18351;47.560;9.708;2023-12-22T08:00:11;8.30;99.90
31783;DHT22;18351;47.560;9.708;2023-12-22T08:02:37;8.30;99.90
31783;DHT22;18351;47.560;9.708;2023-12-22T08:05:03;8.20;99.90
31783;DHT22;18351;47.560;9.708;2023-12-22T08:07:29;8.20;99.90
31783;DHT22;18351;47.560;9.708;2023-12-22T08:09:55;8.30;99.90
31783;DHT22;18351;47.560;9.708;2023-12-22T08:12:21;8.30;99.90
31783;DHT22;18351;47.560;9.708;2023-12-22T08:14:46;8.20;99.90
31783;DHT22;18351;47.560;9.708;2023-12-22T08:17:12;8.20;99.90
31783;DHT22;18351;47.560;9.708;2023-12-22T08:19:39;8.20;99.90
31783;DHT22;18351;47.560;9.708;2023-12-22T08:22:04;8.30;99.90
31783;DHT22;18351;47.560;9.708;2023-12-22T08:24:30;8.20;99.90
31783;DHT22;18351;47.560;9.708;2023-12-22T08:26:56;8.30;99.90
31783;DHT22;18351;47.560;9.708;2023-12-22T08:29:22;8.30;99.90
31783;DHT22;18351;47.560;9.708;2023-12-22T08:31:48;8.30;99.90
31783;DHT22;18351;47.560;9.708;2023-12-22T08:34:13;8.30;99.90
31783;DHT22;18351;47.560;9.708;2023-12-22T08:36:39;8.30;99.90
31783;DHT22;18351;47.560;9.708;2023-12-22T08:39:04;8.40;99.90
31783;DHT22;18351;47.560;9.708;2023-12-22T08:41:31;8.40;99.90
31783;DHT22;18351;47.560;9.708;2023-12-22T08:44:02;8.40;99.90
31783;DHT22;18351;47.560;9.708;2023-12-22T08:46:27;8.40;99.90
31783;DHT22;18351;47.560;9.708;2023-12-22T08:48:53;8.40;99.90
31783;DHT22;18351;47.560;9.708;2023-12-22T08:51:18;8.40;99.90
31783;DHT22;18351;47.560;9.708;2023-12-22T08:53:44;8.40;99.90
31783;DHT22;18351;47.560;9.708;2023-12-22T08:56:10;8.40;99.90
31783;DHT22;18351;47.560;9.708;2023-12-22T08:58:35;8.50;99.90
31783;DHT22;18351;47.560;9.708;2023-12-22T09:01:01;8.50;99.90
31783;DHT22;18351;47.560;9.708;2023-12-22T09:03:26;8.50;99.90
31783;DHT22;18351;47.560;9.708;2023-12-22T09:05:53;8.50;99.90
31783;DHT22;18351;47.560;9.708;2023-12-22T09:08:19;8.50;99.90
31783;DHT22;18351;47.560;9.708;2023-12-22T09:10:44;8.50;99.90
31783;DHT22;18351;47.560;9.708;2023-12-22T09:13:10;8.50;99.90
31783;DHT22;18351;47.560;9.708;2023-12-22T09:15:36;8.50;99.90
31783;DHT22;18351;47.560;9.708;2023-12-22T09:18:02;8.50;99.90
31783;DHT22;18351;47.560;9.708;2023-12-22T09:20:28;8.50;99.90
31783;DHT22;18351;47.560;9.708;2023-12-22T09:22:55;8.50;99.90
31783;DHT22;18351;47.560;9.708;2023-12-22T09:25:23;8.50;99.90
31783;DHT22;18351;47.560;9.708;2023-12-22T09:27:48;8.50;99.90
31783;DHT22;18351;47.560;9.708;2023-12-22T09:30:14;8.50;99.90
31783;DHT22;18351;47.560;9.708;2023-12-22T09:32:40;8.50;99.90
31783;DHT22;18351;47.560;9.708;2023-12-22T09:35:05;8.50;99.90
31783;DHT22;18351;47.560;9.708;2023-12-22T09:37:31;8.50;99.90
31783;DHT22;18351;47.560;9.708;2023-12-22T09:39:57;8.50;99.90
31783;DHT22;18351;47.560;9.708;2023-12-22T09:42:24;8.60;99.90
31783;DHT22;18351;47.560;9.708;2023-12-22T09:44:53;8.60;99.90
31783;DHT22;18351;47.560;9.708;2023-12-22T09:47:21;8.60;99.90
31783;DHT22;18351;47.560;9.708;2023-12-22T09:49:48;8.60;99.90
31783;DHT22;18351;47.560;9.708;2023-12-22T09:52:16;8.60;99.90
31783;DHT22;18351;47.560;9.708;2023-12-22T09:54:43;8.60;99.90
31783;DHT22;18351;47.560;9.708;2023-12-22T09:57:09;8.60;99.90
31783;DHT22;18351;47.560;9.708;2023-12-22T09:59:35;8.50;99.90
31783;DHT22;18351;47.560;9.708;2023-12-22T10:02:02;8.60;99.90
31783;DHT22;18351;47.560;9.708;2023-12-22T10:04:30;8.50;99.90
31783;DHT22;18351;47.560;9.708;2023-12-22T10:06:58;8.60;99.90
31783;DHT22;18351;47.560;9.708;2023-12-22T10:09:26;8.60;99.90
31783;DHT22;18351;47.560;9.708;2023-12-22T10:11:52;8.60;99.90
31783;DHT22;18351;47.560;9.708;2023-12-22T10:14:21;8.70;99.90
31783;DHT22;18351;47.560;9.708;2023-12-22T10:16:52;8.60;99.90
31783;DHT22;18351;47.560;9.708;2023-12-22T10:19:18;8.70;99.90
31783;DHT22;18351;47.560;9.708;2023-12-22T10:21:43;8.70;99.90
31783;DHT22;18351;47.560;9.708;2023-12-22T10:27:04;8.70;99.90
31783;DHT22;18351;47.560;9.708;2023-12-22T10:29:30;8.70;99.90
31783;DHT22;18351;47.560;9.708;2023-12-22T10:31:55;8.70;99.90
31783;DHT22;18351;47.560;9.708;2023-12-22T10:34:21;8.70;99.90
31783;DHT22;18351;47.560;9.708;2023-12-22T10:36:47;8.70;99.90
31783;DHT22;18351;47.560;9.708;2023-12-22T10:39:12;8.70;99.90
31783;DHT22;18351;47.560;9.708;2023-12-22T10:41:38;8.70;99.90
31783;DHT22;18351;47.560;9.708;2023-12-22T10:44:04;8.70;99.90
31783;DHT22;18351;47.560;9.708;2023-12-22T10:46:31;8.70;99.90
31783;DHT22;18351;47.560;9.708;2023-12-22T10:48:59;8.70;99.90
31783;DHT22;18351;47.560;9.708;2023-12-22T10:51:24;8.70;99.90
31783;DHT22;18351;47.560;9.708;2023-12-22T10:53:51;8.70;99.90
31783;DHT22;18351;47.560;9.708;2023-12-22T10:56:17;8.70;99.90
31783;DHT22;18351;47.560;9.708;2023-12-22T10:58:43;8.70;99.90
31783;DHT22;18351;47.560;9.708;2023-12-22T11:01:11;8.70;99.90
31783;DHT22;18351;47.560;9.708;2023-12-22T11:03:39;8.70;99.90
31783;DHT22;18351;47.560;9.708;2023-12-22T11:06:12;8.70;99.90
31783;DHT22;18351;47.560;9.708;2023-12-22T11:08:40;8.70;99.90
31783;DHT22;18351;47.560;9.708;2023-12-22T11:11:15;8.70;99.90
31783;DHT22;18351;47.560;9.708;2023-12-22T11:13:42;8.70;99.90
31783;DHT22;18351;47.560;9.708;2023-12-22T11:16:09;8.70;99.90
31783;DHT22;18351;47.560;9.708;2023-12-22T11:18:35;8.70;99.90
31783;DHT22;18351;47.560;9.708;2023-12-22T11:21:05;8.70;99.90
31783;DHT22;18351;47.560;9.708;2023-12-22T11:23:32;8.70;99.90
31783;DHT22;18351;47.560;9.708;2023-12-22T11:25:59;8.70;99.90
31783;DHT22;18351;47.560;9.708;2023-12-22T11:28:26;8.60;99.90
31783;DHT22;18351;47.560;9.708;2023-12-22T11:30:52;8.60;99.90
31783;DHT22;18351;47.560;9.708;2023-12-22T11:33:20;8.70;99.90
31783;DHT22;18351;47.560;9.708;2023-12-22T11:35:46;8.70;99.90
31783;DHT22;18351;47.560;9.708;2023-12-22T11:38:13;8.70;99.90
31783;DHT22;18351;47.560;9.708;2023-12-22T11:40:39;8.70;99.90
31783;DHT22;18351;47.560;9.708;2023-12-22T11:43:06;8.70;99.90
31783;DHT22;18351;47.560;9.708;2023-12-22T11:45:32;8.70;99.90
31783;DHT22;18351;47.560;9.708;2023-12-22T11:48:11;8.70;99.90
31783;DHT22;18351;47.560;9.708;2023-12-22T11:50:36;8.70;99.90
31783;DHT22;18351;47.560;9.708;2023-12-22T11:53:23;8.70;99.90
31783;DHT22;18351;47.560;9.708;2023-12-22T11:55:58;8.70;99.90
31783;DHT22;18351;47.560;9.708;2023-12-22T11:58:43;8.70;99.90
31783;DHT22;18351;47.560;9.708;2023-12-22T12:01:18;8.70;99.90
31783;DHT22;18351;47.560;9.708;2023-12-22T12:03:52;8.70;99.90
31783;DHT22;18351;47.560;9.708;2023-12-22T12:09:00;8.70;99.90
31783;DHT22;18351;47.560;9.708;2023-12-22T12:12:08;8.70;99.90
31783;DHT22;18351;47.560;9.708;2023-12-22T12:14:37;8.70;99.90
31783;DHT22;18351;47.560;9.708;2023-12-22T12:17:09;8.70;99.90
31783;DHT22;18351;47.560;9.708;2023-12-22T12:19:37;8.70;99.90
31783;DHT22;18351;47.560;9.708;2023-12-22T12:22:03;8.70;99.90
31783;DHT22;18351;47.560;9.708;2023-12-22T12:24:29;8.70;99.90
31783;DHT22;18351;47.560;9.708;2023-12-22T12:26:55;8.70;99.90
31783;DHT22;18351;47.560;9.708;2023-12-22T12:29:22;8.70;99.90
31783;DHT22;18351;47.560;9.708;2023-12-22T12:31:48;8.70;99.90
31783;DHT22;18351;47.560;9.708;2023-12-22T12:34:13;8.70;99.90
31783;DHT22;18351;47.560;9.708;2023-12-22T12:36:41;8.60;99.90
31783;DHT22;18351;47.560;9.708;2023-12-22T12:39:08;8.60;99.90
31783;DHT22;18351;47.560;9.708;2023-12-22T12:41:38;8.60;99.90
31783;DHT22;18351;47.560;9.708;2023-12-22T12:44:06;8.50;99.90
31783;DHT22;18351;47.560;9.708;2023-12-22T12:46:39;8.50;99.90
31783;DHT22;18351;47.560;9.708;2023-12-22T12:49:05;8.40;99.90
31783;DHT22;18351;47.560;9.708;2023-12-22T12:51:38;8.30;99.90
31783;DHT22;18351;47.560;9.708;2023-12-22T12:54:06;8.30;99.90
31783;DHT22;18351;47.560;9.708;2023-12-22T12:56:45;8.20;99.90
31783;DHT22;18351;47.560;9.708;2023-12-22T12:59:13;8.20;99.90
31783;DHT22;18351;47.560;9.708;2023-12-22T13:01:40;8.20;99.90
31783;DHT22;18351;47.560;9.708;2023-12-22T13:04:06;8.10;99.90
31783;DHT22;18351;47.560;9.708;2023-12-22T13:06:32;8.00;99.90
31783;DHT22;18351;47.560;9.708;2023-12-22T13:08:58;8.00;99.90
31783;DHT22;18351;47.560;9.708;2023-12-22T13:11:31;8.00;99.90
31783;DHT22;18351;47.560;9.708;2023-12-22T13:13:57;8.00;99.90
31783;DHT22;18351;47.560;9.708;2023-12-22T13:16:24;8.00;99.90
31783;DHT22;18351;47.560;9.708;2023-12-22T13:18:56;8.00;99.90
31783;DHT22;18351;47.560;9.708;2023-12-22T13:21:23;8.00;99.90
31783;DHT22;18351;47.560;9.708;2023-12-22T13:24:11;8.00;99.90
31783;DHT22;18351;47.560;9.708;2023-12-22T13:26:38;8.00;99.90
31783;DHT22;18351;47.560;9.708;2023-12-22T13:29:04;8.00;99.90
31783;DHT22;18351;47.560;9.708;2023-12-22T13:31:32;8.00;99.90
31783;DHT22;18351;47.560;9.708;2023-12-22T13:33:59;8.00;99.90
31783;DHT22;18351;47.560;9.708;2023-12-22T13:36:25;8.00;99.90
31783;DHT22;18351;47.560;9.708;2023-12-22T13:38:51;8.00;99.90
31783;DHT22;18351;47.560;9.708;2023-12-22T13:41:17;8.10;99.90
31783;DHT22;18351;47.560;9.708;2023-12-22T13:43:43;8.10;99.90
31783;DHT22;18351;47.560;9.708;2023-12-22T13:46:13;8.10;99.90
31783;DHT22;18351;47.560;9.708;2023-12-22T13:48:40;8.10;99.90
31783;DHT22;18351;47.560;9.708;2023-12-22T13:51:06;8.10;99.90
31783;DHT22;18351;47.560;9.708;2023-12-22T13:53:31;8.10;99.90
31783;DHT22;18351;47.560;9.708;2023-12-22T13:55:58;8.10;99.90
31783;DHT22;18351;47.560;9.708;2023-12-22T13:58:24;8.10;99.90
31783;DHT22;18351;47.560;9.708;2023-12-22T14:00:50;8.10;99.90
31783;DHT22;18351;47.560;9.708;2023-12-22T14:03:16;8.20;99.90
31783;DHT22;18351;47.560;9.708;2023-12-22T14:05:43;8.20;99.90
31783;DHT22;18351;47.560;9.708;2023-12-22T14:08:08;8.20;99.90
31783;DHT22;18351;47.560;9.708;2023-12-22T14:10:34;8.20;99.90
31783;DHT22;18351;47.560;9.708;2023-12-22T14:13:00;8.20;99.90
31783;DHT22;18351;47.560;9.708;2023-12-22T14:15:25;8.20;99.90
31783;DHT22;18351;47.560;9.708;2023-12-22T14:17:54;8.30;99.90
31783;DHT22;18351;47.560;9.708;2023-12-22T14:20:21;8.30;99.90
31783;DHT22;18351;47.560;9.708;2023-12-22T14:22:46;8.30;99.90
31783;DHT22;18351;47.560;9.708;2023-12-22T14:25:12;8.40;99.90
31783;DHT22;18351;47.560;9.708;2023-12-22T14:27:37;8.40;99.90
31783;DHT22;18351;47.560;9.708;2023-12-22T14:30:03;8.40;99.90
31783;DHT22;18351;47.560;9.708;2023-12-22T14:32:29;8.40;99.90
31783;DHT22;18351;47.560;9.708;2023-12-22T14:34:55;8.40;99.90
31783;DHT22;18351;47.560;9.708;2023-12-22T14:37:20;8.40;99.90
31783;DHT22;18351;47.560;9.708;2023-12-22T14:39:47;8.40;99.90
31783;DHT22;18351;47.560;9.708;2023-12-22T14:42:12;8.40;99.90
31783;DHT22;18351;47.560;9.708;2023-12-22T14:44:38;8.40;99.90
31783;DHT22;18351;47.560;9.708;2023-12-22T14:47:07;8.40;99.90
31783;DHT22;18351;47.560;9.708;2023-12-22T14:49:32;8.40;99.90
31783;DHT22;18351;47.560;9.708;2023-12-22T14:51:58;8.40;99.90
31783;DHT22;18351;47.560;9.708;2023-12-22T14:54:25;8.50;99.90
31783;DHT22;18351;47.560;9.708;2023-12-22T14:56:51;8.50;99.90
31783;DHT22;18351;47.560;9.708;2023-12-22T14:59:16;8.50;99.90
31783;DHT22;18351;47.560;9.708;2023-12-22T15:01:42;8.50;99.90
31783;DHT22;18351;47.560;9.708;2023-12-22T15:04:08;8.50;99.90
31783;DHT22;18351;47.560;9.708;2023-12-22T15:06:38;8.50;99.90
31783;DHT22;18351;47.560;9.708;2023-12-22T15:09:04;8.50;99.90
31783;DHT22;18351;47.560;9.708;2023-12-22T15:11:30;8.60;99.90
31783;DHT22;18351;47.560;9.708;2023-12-22T15:13:56;8.60;99.90
31783;DHT22;18351;47.560;9.708;2023-12-22T15:16:21;8.60;99.90
31783;DHT22;18351;47.560;9.708;2023-12-22T15:18:47;8.60;99.90
31783;DHT22;18351;47.560;9.708;2023-12-22T15:21:20;8.60;99.90
31783;DHT22;18351;47.560;9.708;2023-12-22T15:23:46;8.60;99.90
31783;DHT22;18351;47.560;9.708;2023-12-22T15:26:24;8.60;99.90
31783;DHT22;18351;47.560;9.708;2023-12-22T15:28:54;8.60;99.90
31783;DHT22;18351;47.560;9.708;2023-12-22T15:31:20;8.60;99.90
31783;DHT22;18351;47.560;9.708;2023-12-22T15:33:46;8.60;99.90
31783;DHT22;18351;47.560;9.708;2023-12-22T15:36:17;8.60;99.90
31783;DHT22;18351;47.560;9.708;2023-12-22T15:38:43;8.60;99.90
31783;DHT22;18351;47.560;9.708;2023-12-22T15:41:09;8.60;99.90
31783;DHT22;18351;47.560;9.708;2023-12-22T15:43:34;8.60;99.90
31783;DHT22;18351;47.560;9.708;2023-12-22T15:46:04;8.60;99.90
31783;DHT22;18351;47.560;9.708;2023-12-22T15:48:29;8.60;99.90
31783;DHT22;18351;47.560;9.708;2023-12-22T15:50:55;8.60;99.90
31783;DHT22;18351;47.560;9.708;2023-12-22T15:53:20;8.60;99.90
31783;DHT22;18351;47.560;9.708;2023-12-22T15:55:46;8.60;99.90
31783;DHT22;18351;47.560;9.708;2023-12-22T15:58:11;8.60;99.90